createdAt,value
2017-05-01T00:00:02.617Z,3
2017-05-01T00:05:10.483Z,5
2017-05-01T00:10:03.252Z,3
2017-05-01T00:15:03.035Z,4
2017-05-01T00:20:02.669Z,5
2017-05-01T00:25:03.268Z,5
2017-05-01T00:30:03.077Z,5
2017-05-01T00:35:02.891Z,4
2017-05-01T00:40:02.721Z,3
2017-05-01T00:45:03.316Z,5
2017-05-01T00:55:03.042Z,6
2017-05-01T01:00:03.594Z,4
2017-05-01T01:05:03.290Z,6
2017-05-01T01:10:03.000Z,3
2017-05-01T01:15:02.838Z,2
2017-05-01T01:20:03.472Z,7
2017-05-01T01:25:03.263Z,4
2017-05-01T01:30:02.914Z,3
2017-05-01T01:35:02.695Z,5
2017-05-01T01:40:03.522Z,5
2017-05-01T01:45:03.237Z,4
2017-05-01T01:50:02.965Z,4
2017-05-01T01:55:02.568Z,4
2017-05-01T02:00:03.119Z,4
2017-05-01T02:05:02.742Z,4
2017-05-01T02:10:02.634Z,4
2017-05-01T02:15:03.321Z,3
2017-05-01T02:20:02.970Z,4
2017-05-01T02:25:02.732Z,6
2017-05-01T02:30:03.502Z,2
2017-05-01T02:35:03.133Z,3
2017-05-01T02:40:02.766Z,4
2017-05-01T02:45:03.273Z,3
2017-05-01T02:50:02.963Z,5
2017-05-01T02:55:02.793Z,3
2017-05-01T03:00:02.672Z,5
2017-05-01T03:05:03.468Z,3
2017-05-01T03:10:03.359Z,5
2017-05-01T03:15:03.141Z,2
2017-05-01T03:20:02.853Z,2
2017-05-01T03:25:03.605Z,2
2017-05-01T03:30:03.361Z,3
2017-05-01T03:35:02.909Z,3
2017-05-01T03:40:02.726Z,3
2017-05-01T03:45:03.416Z,3
2017-05-01T03:50:03.173Z,3
2017-05-01T03:55:02.927Z,4
2017-05-01T04:00:02.667Z,2
2017-05-01T04:05:03.286Z,2
2017-05-01T04:10:03.108Z,3
2017-05-01T04:15:02.754Z,1
2017-05-01T04:20:03.369Z,0
2017-05-01T04:25:03.145Z,3
2017-05-01T04:30:02.698Z,1
2017-05-01T04:35:03.362Z,2
2017-05-01T04:40:03.512Z,2
2017-05-01T04:45:03.322Z,0
2017-05-01T04:50:03.006Z,0
2017-05-01T04:55:02.819Z,2
2017-05-01T05:00:03.522Z,2
2017-05-01T05:05:03.314Z,2
2017-05-01T05:10:02.917Z,2
2017-05-01T05:15:02.889Z,0
2017-05-01T05:20:02.640Z,1
2017-05-01T05:25:03.306Z,0
2017-05-01T05:30:03.122Z,2
2017-05-01T05:35:02.845Z,0
2017-05-01T05:40:02.668Z,1
2017-05-01T05:45:03.271Z,0
2017-05-01T05:50:03.069Z,0
2017-05-01T05:55:02.864Z,0
2017-05-01T06:00:03.466Z,0
2017-05-01T06:05:03.285Z,0
2017-05-01T06:10:02.930Z,0
2017-05-01T06:15:03.526Z,0
2017-05-01T06:20:03.303Z,0
2017-05-01T06:25:02.897Z,0
2017-05-01T06:30:03.502Z,0
2017-05-01T06:35:03.320Z,0
2017-05-01T06:40:03.120Z,2
2017-05-01T06:45:02.852Z,2
2017-05-01T06:50:02.694Z,3
2017-05-01T06:55:03.334Z,5
2017-05-01T07:00:03.194Z,5
2017-05-01T07:05:02.825Z,4
2017-05-01T07:10:03.466Z,4
2017-05-01T07:15:03.155Z,3
2017-05-01T07:20:02.988Z,4
2017-05-01T07:25:02.586Z,3
2017-05-01T07:30:03.418Z,3
2017-05-01T07:35:03.010Z,3
2017-05-01T07:40:02.888Z,2
2017-05-01T07:45:02.650Z,2
2017-05-01T07:50:03.435Z,3
2017-05-01T07:55:03.245Z,4
2017-05-01T08:00:03.284Z,3
2017-05-01T08:05:03.185Z,4
2017-05-01T08:10:03.076Z,3
2017-05-01T08:15:02.717Z,6
2017-05-01T08:20:03.575Z,2
2017-05-01T08:25:03.269Z,3
2017-05-01T08:30:03.024Z,3
2017-05-01T08:35:02.890Z,3
2017-05-01T08:40:02.699Z,1
2017-05-01T08:45:03.382Z,3
2017-05-01T08:50:03.461Z,3
2017-05-01T08:55:03.301Z,4
2017-05-01T09:00:02.960Z,3
2017-05-01T09:05:02.814Z,2
2017-05-01T09:10:03.603Z,2
2017-05-01T09:15:03.388Z,2
2017-05-01T09:20:03.215Z,3
2017-05-01T09:25:02.876Z,3
2017-05-01T09:30:03.545Z,2
2017-05-01T09:35:03.320Z,3
2017-05-01T09:40:03.067Z,3
2017-05-01T09:45:02.853Z,2
2017-05-01T09:50:03.489Z,2
2017-05-01T09:55:03.171Z,3
2017-05-01T10:00:02.937Z,2
2017-05-01T10:05:02.775Z,2
2017-05-01T10:10:03.488Z,3
2017-05-01T10:15:03.288Z,5
2017-05-01T10:20:02.915Z,4
2017-05-01T10:25:03.561Z,3
2017-05-01T10:30:03.407Z,3
2017-05-01T10:35:03.095Z,3
2017-05-01T10:40:03.021Z,3
2017-05-01T10:45:02.691Z,4
2017-05-01T10:50:03.353Z,4
2017-05-01T10:55:03.188Z,3
2017-05-01T11:00:02.860Z,4
2017-05-01T11:05:03.528Z,2
2017-05-01T11:10:03.449Z,3
2017-05-01T11:15:03.077Z,2
2017-05-01T11:20:02.654Z,2
2017-05-01T11:25:03.290Z,3
2017-05-01T11:30:03.307Z,2
2017-05-01T11:35:03.292Z,1
2017-05-01T11:40:03.503Z,0
2017-05-01T11:45:03.457Z,1
2017-05-01T11:50:03.444Z,0
2017-05-01T11:55:03.098Z,0
2017-05-01T12:00:02.775Z,0
2017-05-01T12:05:03.586Z,0
2017-05-01T12:10:02.938Z,0
2017-05-01T12:15:02.831Z,0
2017-05-01T12:20:02.778Z,0
2017-05-01T12:25:02.933Z,1
2017-05-01T12:30:03.277Z,2
2017-05-01T12:35:02.959Z,2
2017-05-01T12:40:02.982Z,0
2017-05-01T12:45:02.643Z,2
2017-05-01T12:50:03.069Z,2
2017-05-01T12:55:03.118Z,3
2017-05-01T13:00:03.202Z,1
2017-05-01T13:05:03.300Z,1
2017-05-01T13:10:03.129Z,2
2017-05-01T13:15:03.029Z,5
2017-05-01T13:20:03.181Z,4
2017-05-01T13:25:03.000Z,1
2017-05-01T13:30:03.521Z,2
2017-05-01T13:35:02.675Z,2
2017-05-01T13:40:02.769Z,4
2017-05-01T13:45:02.907Z,2
2017-05-01T13:50:03.076Z,3
2017-05-01T13:55:03.496Z,2
2017-05-01T14:00:03.537Z,3
2017-05-01T14:05:03.398Z,2
2017-05-01T14:10:02.656Z,0
2017-05-01T14:15:03.034Z,0
2017-05-01T14:20:03.218Z,0
2017-05-01T14:25:03.513Z,0
2017-05-01T14:30:02.772Z,0
2017-05-01T14:35:02.799Z,3
2017-05-01T14:40:03.568Z,0
2017-05-01T14:45:03.343Z,0
2017-05-01T14:50:02.950Z,0
2017-05-01T14:55:03.255Z,0
2017-05-01T15:00:02.581Z,0
2017-05-01T15:05:03.142Z,0
2017-05-01T15:10:03.113Z,1
2017-05-01T15:15:03.255Z,0
2017-05-01T15:20:02.667Z,0
2017-05-01T15:25:03.093Z,0
2017-05-01T15:30:02.999Z,0
2017-05-01T15:35:02.921Z,1
2017-05-01T15:40:02.746Z,1
2017-05-01T15:45:03.389Z,0
2017-05-01T15:50:02.978Z,0
2017-05-01T15:55:02.653Z,1
2017-05-01T16:00:03.560Z,2
2017-05-01T16:05:03.193Z,0
2017-05-01T16:10:02.961Z,1
2017-05-01T16:15:02.764Z,1
2017-05-01T16:20:03.552Z,0
2017-05-01T16:25:03.144Z,1
2017-05-01T16:30:02.928Z,2
2017-05-01T16:35:03.596Z,0
2017-05-01T16:40:03.451Z,0
2017-05-01T16:45:03.163Z,2
2017-05-01T16:50:02.790Z,2
2017-05-01T16:55:03.441Z,0
2017-05-01T17:00:03.172Z,2
2017-05-01T17:05:02.745Z,2
2017-05-01T17:10:02.633Z,0
2017-05-01T17:15:03.294Z,0
2017-05-01T17:20:02.903Z,0
2017-05-01T17:25:02.609Z,0
2017-05-01T17:30:03.248Z,0
2017-05-01T17:35:03.006Z,0
2017-05-01T17:40:02.758Z,0
2017-05-01T17:45:03.634Z,0
2017-05-01T17:50:03.417Z,0
2017-05-01T17:55:03.058Z,0
2017-05-01T18:00:02.651Z,0
2017-05-01T18:05:03.370Z,0
2017-05-01T18:10:02.991Z,0
2017-05-01T18:15:02.671Z,0
2017-05-01T18:20:03.533Z,0
2017-05-01T18:25:03.128Z,0
2017-05-01T18:30:02.935Z,0
2017-05-01T18:35:03.549Z,0
2017-05-01T18:40:03.336Z,0
2017-05-01T18:45:02.961Z,0
2017-05-01T18:50:02.684Z,0
2017-05-01T18:55:03.482Z,0
2017-05-01T19:00:03.482Z,0
2017-05-01T19:05:03.211Z,0
2017-05-01T19:10:02.959Z,0
2017-05-01T19:15:02.703Z,0
2017-05-01T19:20:03.526Z,0
2017-05-01T19:25:03.211Z,0
2017-05-01T19:30:02.919Z,0
2017-05-01T19:35:02.755Z,0
2017-05-01T19:40:03.505Z,0
2017-05-01T19:45:03.174Z,0
2017-05-01T19:50:02.781Z,0
2017-05-01T19:55:03.588Z,0
2017-05-01T20:00:03.511Z,0
2017-05-01T20:05:03.126Z,0
2017-05-01T20:10:02.838Z,0
2017-05-01T20:15:02.723Z,0
2017-05-01T20:20:03.527Z,0
2017-05-01T20:25:03.388Z,0
2017-05-01T20:30:03.090Z,0
2017-05-01T20:35:02.805Z,0
2017-05-01T20:40:02.786Z,0
2017-05-01T20:45:02.999Z,0
2017-05-01T20:50:03.154Z,0
2017-05-01T20:55:03.425Z,0
2017-05-01T21:00:03.425Z,0
2017-05-01T21:05:03.113Z,0
2017-05-01T21:10:03.306Z,0
2017-05-01T21:15:03.174Z,0
2017-05-01T21:20:02.758Z,0
2017-05-01T21:25:03.407Z,0
2017-05-01T21:30:03.194Z,0
2017-05-01T21:35:02.947Z,0
2017-05-01T21:40:02.803Z,0
2017-05-01T21:45:03.505Z,0
2017-05-01T21:50:03.340Z,0
2017-05-01T21:55:03.095Z,0
2017-05-01T22:00:02.824Z,0
2017-05-01T22:05:03.486Z,0
2017-05-01T22:10:03.287Z,0
2017-05-01T22:15:03.025Z,0
2017-05-01T22:20:02.743Z,0
2017-05-01T22:25:03.419Z,0
2017-05-01T22:30:03.081Z,0
2017-05-01T22:35:02.757Z,0
2017-05-01T22:40:03.564Z,0
2017-05-01T22:45:03.250Z,0
2017-05-01T22:50:03.109Z,0
2017-05-01T22:55:02.946Z,0
2017-05-01T23:00:18.645Z,0
2017-05-01T23:05:02.867Z,0
2017-05-01T23:10:02.698Z,0
2017-05-01T23:15:03.325Z,0
2017-05-01T23:20:03.009Z,0
2017-05-01T23:25:09.790Z,0
2017-05-01T23:30:03.505Z,0
2017-05-01T23:35:03.124Z,0
2017-05-01T23:40:02.926Z,0
2017-05-01T23:45:02.699Z,0
2017-05-01T23:50:03.353Z,0
2017-05-01T23:55:03.088Z,0
